Capitol Logistics 565


VIDP
Indira Gandhi International Airport
New Delhi, IN
VHHH
Chek Lap Kok International
Hong Kong, HK

Activity Log

Date Flight Route Aircraft Duration
04/17/2019 CPX765 ALI R460 LKN A201 AAT A201B ANSOS A201 LSO A599 GULOT W146 XSJ W148 LXI A599 POU R473 SIERA B744 4h 41m

Route Details

Aircraft Information
Primary: Boeing 747-400BCF
Backup: Boeing 777-200LRF
Route Data
Distance: 2026nm
Sched. Duration: 5h 09m
Avg. Duration: 4h 41m (-68m)
Times Flown: 1
Recm'd Route: ALI R460 LKN A201 AAT A201B ANSOS A201 LSO A599 GULOT W146 XSJ W148 LXI A599 POU R473 SIERA
Planned Altitude: 35,000ft
Origin Wx: VIDP 271030Z 14005KT 2200 FU FEW040 SCT100 27/13 Q1013 NOSIG
Dest. Wx: VHHH 271030Z 10015KT 9999 FEW022 21/15 Q1018 NOSIG
Notes:

Financial History
Total Freight: 126,008lbs
Average Load: 126,008lbs/flt
Fuel Used: 90,317lbs
Avg. Fuel Used: 90,317lbs/flt
Fuel Expense: $72,254
Avg. Fuel Expense: $72,254
Avg. Fuel Cost: $0.80/lbs
Total Gross Income: $477,570
Pilot Pay: $149
Total Expenses: $51,630
Total Revenue: $352,987
Average Revenue: $477,570.31